createdAt,value
2023-03-31T00:01:00.697Z,5.40
2023-03-31T00:03:29.996Z,5.40
2023-03-31T00:05:59.367Z,5.40
2023-03-31T00:08:30.783Z,5.30
2023-03-31T00:11:01.358Z,5.30
2023-03-31T00:13:32.377Z,5.20
2023-03-31T00:16:02.192Z,5.10
2023-03-31T00:21:08.460Z,4.90
2023-03-31T00:23:37.386Z,4.80
2023-03-31T00:26:06.390Z,4.70
2023-03-31T00:28:35.981Z,3.40
2023-03-31T00:31:05.538Z,4.70
2023-03-31T00:33:33.647Z,4.80
2023-03-31T00:36:06.421Z,4.70
2023-03-31T00:41:05.033Z,4.80
2023-03-31T00:43:37.084Z,4.80
2023-03-31T00:46:15.519Z,4.80
2023-03-31T00:48:49.033Z,4.80
2023-03-31T00:51:17.461Z,4.80
2023-03-31T00:53:47.175Z,4.70
2023-03-31T00:56:17.679Z,4.60
2023-03-31T00:58:47.409Z,4.60
2023-03-31T01:01:20.390Z,4.60
2023-03-31T01:03:50.544Z,4.50
2023-03-31T01:06:20.750Z,4.40
2023-03-31T01:08:51.189Z,4.40
2023-03-31T01:11:21.412Z,4.40
2023-03-31T01:13:56.115Z,4.40
2023-03-31T01:16:24.379Z,4.30
2023-03-31T01:18:52.704Z,4.30
2023-03-31T01:22:05.578Z,4.30
2023-03-31T01:25:01.725Z,4.20
2023-03-31T01:27:54.161Z,4.10
2023-03-31T01:30:56.391Z,4.10
2023-03-31T01:33:52.788Z,4.00
2023-03-31T01:36:49.011Z,4.00
2023-03-31T01:39:53.822Z,4.00
2023-03-31T01:42:30.825Z,4.00
2023-03-31T01:45:06.417Z,6.10
2023-03-31T01:47:40.861Z,4.10
2023-03-31T01:50:20.321Z,4.10
2023-03-31T01:52:50.825Z,4.30
2023-03-31T01:55:25.486Z,4.30
2023-03-31T01:57:59.319Z,7.00
2023-03-31T02:00:33.417Z,4.20
2023-03-31T02:03:08.026Z,4.20
2023-03-31T02:05:41.822Z,4.20
2023-03-31T02:08:13.261Z,6.10
2023-03-31T02:10:43.458Z,4.20
2023-03-31T02:13:15.621Z,4.20
2023-03-31T02:15:47.459Z,4.20
2023-03-31T02:18:20.362Z,4.30
2023-03-31T02:20:52.541Z,4.30
2023-03-31T02:23:26.428Z,4.40
2023-03-31T02:25:58.496Z,4.40
2023-03-31T02:28:29.606Z,4.50
2023-03-31T02:31:09.477Z,4.40
2023-03-31T02:33:37.696Z,6.20
2023-03-31T02:36:07.855Z,4.50
2023-03-31T02:38:40.675Z,4.50
2023-03-31T02:41:09.734Z,4.50
2023-03-31T02:43:41.784Z,4.50
2023-03-31T02:48:44.070Z,4.60
2023-03-31T02:51:43.285Z,4.60
2023-03-31T02:54:31.176Z,4.60
2023-03-31T02:57:17.292Z,4.70
2023-03-31T02:59:58.883Z,4.70
2023-03-31T03:02:38.354Z,4.70
2023-03-31T03:05:23.392Z,4.70
2023-03-31T03:07:59.869Z,4.80
2023-03-31T03:10:40.116Z,4.80
2023-03-31T03:13:16.369Z,4.80
2023-03-31T03:15:52.093Z,4.80
2023-03-31T03:18:20.398Z,4.80
2023-03-31T03:20:51.152Z,4.80
2023-03-31T03:25:48.074Z,4.70
2023-03-31T03:30:47.399Z,4.80
2023-03-31T03:33:17.158Z,4.80
2023-03-31T03:35:45.661Z,4.90
2023-03-31T03:38:13.831Z,4.90
2023-03-31T03:40:41.932Z,4.90
2023-03-31T03:43:10.048Z,4.90
2023-03-31T03:45:40.768Z,4.90
2023-03-31T03:48:10.362Z,5.00
2023-03-31T03:50:40.003Z,5.00
2023-03-31T03:53:08.190Z,5.00
2023-03-31T03:55:37.402Z,5.00
2023-03-31T03:58:05.602Z,5.10
2023-03-31T04:00:35.292Z,5.20
2023-03-31T04:03:03.632Z,5.30
2023-03-31T04:05:34.323Z,5.50
2023-03-31T04:10:32.605Z,5.60
2023-03-31T04:16:05.999Z,5.60
2023-03-31T04:18:42.831Z,5.70
2023-03-31T04:21:35.056Z,5.80
2023-03-31T04:32:23.579Z,6.10
2023-03-31T04:34:51.723Z,6.20
2023-03-31T04:37:21.532Z,6.50
2023-03-31T04:39:50.767Z,6.60
2023-03-31T04:42:19.122Z,6.80
2023-03-31T04:44:47.206Z,6.80
2023-03-31T04:47:15.409Z,6.80
2023-03-31T04:52:12.203Z,7.00
2023-03-31T04:54:41.641Z,7.00
2023-03-31T04:57:09.813Z,7.10
2023-03-31T04:59:40.041Z,7.10
2023-03-31T05:02:08.298Z,7.10
2023-03-31T05:04:37.702Z,7.10
2023-03-31T05:07:06.276Z,7.20
2023-03-31T05:09:35.118Z,7.30
2023-03-31T05:12:04.793Z,7.30
2023-03-31T05:14:33.591Z,7.30
2023-03-31T05:17:01.904Z,7.40
2023-03-31T05:19:30.158Z,7.40
2023-03-31T05:21:58.301Z,7.40
2023-03-31T05:24:28.285Z,7.50
2023-03-31T05:29:31.248Z,7.50
2023-03-31T05:32:02.028Z,7.60
2023-03-31T05:39:33.180Z,7.70
2023-03-31T05:44:31.517Z,7.70
2023-03-31T05:46:59.627Z,7.80
2023-03-31T05:49:27.866Z,7.80
2023-03-31T05:51:56.199Z,7.80
2023-03-31T05:59:21.352Z,7.90
2023-03-31T06:01:51.096Z,7.90
2023-03-31T06:04:19.511Z,7.90
2023-03-31T06:06:50.388Z,7.90
2023-03-31T06:09:18.826Z,7.90
2023-03-31T06:11:49.430Z,7.90
2023-03-31T06:14:18.933Z,8.00
2023-03-31T06:16:50.174Z,8.00
2023-03-31T06:19:18.327Z,8.00
2023-03-31T06:21:46.570Z,8.10
2023-03-31T06:24:14.809Z,8.10
2023-03-31T06:26:43.782Z,8.10
2023-03-31T06:29:11.851Z,8.20
2023-03-31T06:31:40.040Z,8.30
2023-03-31T06:34:09.539Z,8.30
2023-03-31T06:36:37.674Z,8.30
2023-03-31T06:39:05.792Z,8.30
2023-03-31T06:41:35.788Z,8.30
2023-03-31T06:44:04.493Z,8.30
2023-03-31T06:46:32.696Z,8.30
2023-03-31T06:49:00.864Z,8.30
2023-03-31T06:51:32.734Z,8.30
2023-03-31T06:54:01.153Z,8.30
2023-03-31T06:56:32.824Z,8.40
2023-03-31T06:59:01.029Z,8.40
2023-03-31T07:01:29.185Z,8.40
2023-03-31T07:06:25.898Z,8.40
2023-03-31T07:08:55.652Z,8.40
2023-03-31T07:13:53.189Z,8.40
2023-03-31T07:16:21.521Z,8.40
2023-03-31T07:18:50.565Z,8.40
2023-03-31T07:21:18.678Z,8.40
2023-03-31T07:23:46.794Z,8.30
2023-03-31T07:26:16.359Z,8.30
2023-03-31T07:28:44.521Z,8.30
2023-03-31T07:31:13.842Z,8.30
2023-03-31T07:33:42.880Z,8.20
2023-03-31T07:36:13.984Z,8.20
2023-03-31T07:38:43.604Z,8.30
2023-03-31T07:41:13.105Z,8.30
2023-03-31T07:43:42.664Z,8.20
2023-03-31T07:46:16.266Z,8.20
2023-03-31T07:48:46.429Z,8.30
2023-03-31T07:51:15.228Z,8.30
2023-03-31T07:53:43.408Z,8.30
2023-03-31T07:56:11.526Z,8.20
2023-03-31T07:58:39.664Z,8.20
2023-03-31T08:01:09.432Z,8.20
2023-03-31T08:06:08.053Z,8.20
2023-03-31T08:08:43.251Z,8.20
2023-03-31T08:11:11.485Z,8.20
2023-03-31T08:13:39.736Z,8.20
2023-03-31T08:16:09.658Z,8.20
2023-03-31T08:18:41.813Z,8.30
2023-03-31T08:21:10.803Z,8.30
2023-03-31T08:26:11.007Z,8.40
2023-03-31T08:28:39.065Z,8.40
2023-03-31T08:31:10.515Z,8.40
2023-03-31T08:33:38.820Z,11.30
2023-03-31T08:36:10.747Z,5.90
2023-03-31T08:38:46.132Z,8.60
2023-03-31T08:41:27.277Z,8.80
2023-03-31T08:43:58.377Z,8.90
2023-03-31T08:46:30.852Z,8.90
2023-03-31T08:49:01.247Z,8.80
2023-03-31T08:51:33.620Z,8.90
2023-03-31T08:54:04.136Z,8.90
2023-03-31T08:56:39.388Z,8.90
2023-03-31T08:59:16.687Z,9.00
2023-03-31T09:01:56.613Z,8.90
2023-03-31T09:04:44.598Z,9.00
2023-03-31T09:07:20.200Z,9.00
2023-03-31T09:09:55.513Z,9.00
2023-03-31T09:12:28.956Z,9.00
2023-03-31T09:15:02.259Z,9.00
2023-03-31T09:17:34.978Z,9.00
2023-03-31T09:20:13.647Z,9.00
2023-03-31T09:22:46.173Z,9.30
2023-03-31T09:25:18.574Z,9.40
2023-03-31T09:27:47.803Z,9.70
2023-03-31T09:30:20.407Z,9.90
2023-03-31T09:32:53.975Z,9.90
2023-03-31T09:35:25.341Z,9.80
2023-03-31T09:37:54.881Z,9.90
2023-03-31T09:40:25.454Z,9.90
2023-03-31T09:42:59.021Z,10.10
2023-03-31T09:45:27.377Z,10.20
2023-03-31T09:48:00.497Z,10.40
2023-03-31T09:50:30.859Z,7.40
2023-03-31T09:53:00.829Z,11.20
2023-03-31T09:55:39.942Z,11.50
2023-03-31T09:58:13.004Z,11.90
2023-03-31T10:00:43.277Z,13.10
2023-03-31T10:03:15.110Z,12.80
2023-03-31T10:05:51.777Z,14.40
2023-03-31T10:08:27.892Z,14.40
2023-03-31T10:10:57.937Z,14.80
2023-03-31T10:13:29.453Z,15.00
2023-03-31T10:16:04.826Z,15.00
2023-03-31T10:18:36.927Z,15.30
2023-03-31T10:21:07.028Z,15.30
2023-03-31T10:23:36.712Z,15.20
2023-03-31T10:26:06.684Z,16.00
2023-03-31T10:28:37.232Z,16.10
2023-03-31T10:31:06.498Z,16.60
2023-03-31T10:33:45.142Z,16.50
2023-03-31T10:36:22.162Z,16.80
2023-03-31T10:38:51.696Z,16.80
2023-03-31T10:41:21.939Z,17.60
2023-03-31T10:43:52.598Z,17.70
2023-03-31T10:46:21.580Z,17.10
2023-03-31T10:48:52.917Z,16.20
2023-03-31T10:51:22.798Z,15.30
2023-03-31T10:53:52.428Z,15.70
2023-03-31T10:56:39.332Z,16.50
2023-03-31T10:59:27.948Z,15.80
2023-03-31T11:02:15.441Z,16.30
2023-03-31T11:04:53.722Z,15.70
2023-03-31T11:07:38.244Z,15.90
2023-03-31T11:10:29.274Z,16.10
2023-03-31T11:13:01.909Z,15.70
2023-03-31T11:15:35.976Z,15.10
2023-03-31T11:18:18.430Z,15.40
2023-03-31T11:20:58.159Z,15.40
2023-03-31T11:23:36.899Z,15.40
2023-03-31T11:26:12.054Z,15.50
2023-03-31T11:28:53.623Z,16.00
2023-03-31T11:31:33.320Z,16.20
2023-03-31T11:34:39.712Z,16.40
2023-03-31T11:37:24.848Z,16.00
2023-03-31T11:40:08.112Z,16.00
2023-03-31T11:42:39.249Z,16.40
2023-03-31T11:45:17.358Z,16.30
2023-03-31T11:47:47.796Z,15.90
2023-03-31T11:50:20.585Z,15.10
2023-03-31T11:52:57.269Z,14.60
2023-03-31T11:55:28.291Z,14.40
2023-03-31T11:58:03.515Z,13.80
2023-03-31T12:00:35.948Z,13.70
2023-03-31T12:03:12.490Z,13.60
2023-03-31T12:05:46.279Z,13.60
2023-03-31T12:08:20.106Z,14.00
2023-03-31T12:10:53.093Z,14.40
2023-03-31T12:13:37.341Z,14.40
2023-03-31T12:16:10.659Z,14.90
2023-03-31T12:18:43.732Z,15.80
2023-03-31T12:21:12.361Z,16.70
2023-03-31T12:23:45.664Z,17.90
2023-03-31T12:26:28.588Z,19.20
2023-03-31T12:28:59.805Z,20.20
2023-03-31T12:31:30.602Z,20.00
2023-03-31T12:34:01.741Z,19.90
2023-03-31T12:36:46.628Z,19.00
2023-03-31T12:39:30.045Z,19.50
2023-03-31T12:42:29.679Z,19.60
2023-03-31T12:45:03.320Z,19.80
2023-03-31T12:47:54.386Z,19.70
2023-03-31T12:50:44.901Z,19.80
2023-03-31T12:53:23.024Z,19.50
2023-03-31T12:55:57.852Z,17.90
2023-03-31T12:58:53.579Z,17.70
2023-03-31T13:01:22.747Z,17.40
2023-03-31T13:04:11.208Z,16.80
2023-03-31T13:06:57.194Z,16.30
2023-03-31T13:09:52.192Z,16.10
2023-03-31T13:12:24.029Z,15.70
2023-03-31T13:14:54.303Z,15.40
2023-03-31T13:17:28.734Z,15.00
2023-03-31T13:20:16.616Z,14.60
2023-03-31T13:22:49.495Z,14.20
2023-03-31T13:25:51.944Z,13.80
2023-03-31T13:28:35.609Z,13.80
2023-03-31T13:31:05.546Z,13.60
2023-03-31T13:33:46.688Z,13.50
2023-03-31T13:36:45.493Z,12.20
2023-03-31T13:39:47.891Z,10.90
2023-03-31T13:42:41.821Z,10.20
2023-03-31T13:45:26.670Z,10.00
2023-03-31T13:48:09.218Z,10.30
2023-03-31T13:50:54.589Z,10.60
2023-03-31T13:53:41.946Z,10.70
2023-03-31T13:56:35.412Z,10.80
2023-03-31T13:59:21.304Z,10.90
2023-03-31T14:02:13.896Z,10.90
2023-03-31T14:05:10.675Z,10.80
2023-03-31T14:07:42.898Z,11.00
2023-03-31T14:10:24.426Z,11.20
2023-03-31T14:12:53.294Z,11.50
2023-03-31T14:15:22.679Z,13.40
2023-03-31T14:17:52.948Z,12.60
2023-03-31T14:20:30.863Z,12.80
2023-03-31T14:23:10.367Z,13.20
2023-03-31T14:25:48.223Z,13.20
2023-03-31T14:28:29.892Z,13.20
2023-03-31T14:31:13.414Z,12.70
2023-03-31T14:33:51.863Z,13.00
2023-03-31T14:36:29.499Z,12.90
2023-03-31T14:39:03.112Z,13.10
2023-03-31T14:41:31.868Z,13.10
2023-03-31T14:44:04.041Z,13.10
2023-03-31T14:46:38.093Z,13.30
2023-03-31T14:49:20.138Z,13.60
2023-03-31T14:51:48.594Z,13.60
2023-03-31T14:54:18.533Z,13.50
2023-03-31T14:56:48.884Z,13.60
2023-03-31T14:59:22.195Z,13.70
2023-03-31T15:01:51.605Z,13.50
2023-03-31T15:04:41.309Z,13.40
2023-03-31T15:07:11.564Z,13.20
2023-03-31T15:09:41.013Z,13.10
2023-03-31T15:12:13.897Z,12.90
2023-03-31T15:14:46.081Z,12.90
2023-03-31T15:17:20.498Z,12.70
2023-03-31T15:19:55.013Z,12.80
2023-03-31T15:22:25.967Z,12.70
2023-03-31T15:24:54.382Z,12.60
2023-03-31T15:27:36.930Z,12.60
2023-03-31T15:30:08.830Z,12.70
2023-03-31T15:32:39.077Z,12.70
2023-03-31T15:35:22.537Z,12.80
2023-03-31T15:37:53.110Z,12.90
2023-03-31T15:40:24.893Z,12.90
2023-03-31T15:43:06.480Z,13.00
2023-03-31T15:45:59.963Z,12.90
2023-03-31T15:48:33.374Z,12.90
2023-03-31T15:51:06.754Z,12.90
2023-03-31T15:53:38.925Z,12.70
2023-03-31T15:56:07.700Z,12.70
2023-03-31T15:59:04.391Z,12.60
2023-03-31T16:01:35.630Z,12.60
2023-03-31T16:04:08.162Z,12.60
2023-03-31T16:06:44.986Z,12.60
2023-03-31T16:09:18.509Z,12.50
2023-03-31T16:12:11.709Z,12.50
2023-03-31T16:14:49.484Z,13.30
2023-03-31T16:17:23.316Z,12.40
2023-03-31T16:19:55.692Z,12.20
2023-03-31T16:22:35.464Z,12.10
2023-03-31T16:25:03.765Z,12.10
2023-03-31T16:27:32.483Z,11.80
2023-03-31T16:30:10.735Z,10.90
2023-03-31T16:35:09.901Z,9.80
2023-03-31T16:37:39.449Z,9.60
2023-03-31T16:40:09.942Z,9.50
2023-03-31T16:42:41.224Z,9.40
2023-03-31T16:45:14.665Z,9.30
2023-03-31T16:47:46.075Z,9.30
2023-03-31T16:50:15.723Z,9.20
2023-03-31T16:52:45.514Z,9.20
2023-03-31T16:55:13.702Z,9.00
2023-03-31T16:57:42.700Z,9.10
2023-03-31T17:00:12.020Z,9.10
2023-03-31T17:02:41.465Z,8.90
2023-03-31T17:05:13.208Z,8.80
2023-03-31T17:07:43.387Z,8.90
2023-03-31T17:10:13.981Z,8.80
2023-03-31T17:12:42.410Z,8.80
2023-03-31T17:15:13.274Z,8.80
2023-03-31T17:17:43.535Z,8.80
2023-03-31T17:20:12.940Z,8.80
2023-03-31T17:22:43.296Z,8.80
2023-03-31T17:25:12.906Z,8.80
2023-03-31T17:27:41.069Z,8.80
2023-03-31T17:30:10.217Z,8.80
2023-03-31T17:32:39.817Z,8.80
2023-03-31T17:35:08.789Z,8.70
2023-03-31T17:37:38.696Z,8.70
2023-03-31T17:40:08.153Z,8.80
2023-03-31T17:42:40.543Z,8.80
2023-03-31T17:45:10.343Z,8.70
2023-03-31T17:47:38.846Z,8.60
2023-03-31T17:50:08.768Z,8.50
2023-03-31T17:52:37.387Z,8.40
2023-03-31T17:55:06.011Z,8.40
2023-03-31T17:57:36.697Z,8.60
2023-03-31T18:00:09.065Z,8.60
2023-03-31T18:02:37.421Z,8.50
2023-03-31T18:05:06.853Z,8.60
2023-03-31T18:07:35.998Z,8.60
2023-03-31T18:10:05.851Z,8.60
2023-03-31T18:12:35.018Z,8.70
2023-03-31T18:15:05.503Z,8.80
2023-03-31T18:17:36.564Z,8.90
2023-03-31T18:22:33.844Z,9.00
2023-03-31T18:25:02.651Z,9.00
2023-03-31T18:30:01.873Z,9.00
2023-03-31T18:35:07.212Z,9.00
2023-03-31T18:37:35.299Z,9.00
2023-03-31T18:42:32.292Z,9.10
2023-03-31T18:45:00.434Z,9.40
2023-03-31T18:47:28.987Z,9.40
2023-03-31T18:49:59.618Z,9.40
2023-03-31T18:52:29.752Z,9.30
2023-03-31T18:54:58.396Z,9.30
2023-03-31T18:57:26.699Z,9.30
2023-03-31T19:02:24.257Z,9.30
2023-03-31T19:04:52.463Z,9.30
2023-03-31T19:07:20.728Z,9.20
2023-03-31T19:09:50.176Z,9.20
2023-03-31T19:12:18.366Z,9.20
2023-03-31T19:14:46.789Z,9.10
2023-03-31T19:17:19.825Z,9.00
2023-03-31T19:22:17.298Z,9.00
2023-03-31T19:24:46.230Z,8.90
2023-03-31T19:27:15.734Z,8.80
2023-03-31T19:29:43.830Z,8.80
2023-03-31T19:34:40.629Z,8.80
2023-03-31T19:37:11.191Z,8.80
2023-03-31T19:39:39.704Z,8.80
2023-03-31T19:42:09.691Z,8.80
2023-03-31T19:44:39.490Z,8.80
2023-03-31T19:49:36.328Z,8.70
2023-03-31T19:52:04.471Z,8.80
2023-03-31T19:54:34.218Z,8.70
2023-03-31T19:57:02.600Z,8.70
2023-03-31T19:59:31.513Z,8.70
2023-03-31T20:02:02.680Z,8.70
2023-03-31T20:04:31.804Z,8.70
2023-03-31T20:07:00.186Z,8.70
2023-03-31T20:09:28.514Z,8.70
2023-03-31T20:14:26.329Z,8.70
2023-03-31T20:16:54.867Z,8.70
2023-03-31T20:19:24.353Z,8.70
2023-03-31T20:21:56.052Z,8.80
2023-03-31T20:24:24.890Z,8.80
2023-03-31T20:26:53.487Z,8.70
2023-03-31T20:29:25.297Z,8.70
2023-03-31T20:32:03.630Z,8.70
2023-03-31T20:34:53.146Z,8.70
2023-03-31T20:37:21.426Z,8.70
2023-03-31T20:39:49.508Z,8.70
2023-03-31T20:42:17.613Z,8.70
2023-03-31T20:44:45.951Z,8.60
2023-03-31T20:47:14.368Z,8.60
2023-03-31T20:49:42.439Z,8.50
2023-03-31T20:52:12.286Z,8.50
2023-03-31T20:54:40.399Z,8.50
2023-03-31T20:57:08.631Z,8.40
2023-03-31T20:59:36.784Z,8.40
2023-03-31T21:02:04.882Z,8.40
2023-03-31T21:04:33.208Z,8.30
2023-03-31T21:07:01.514Z,8.30
2023-03-31T21:09:34.974Z,8.30
2023-03-31T21:12:04.795Z,8.20
2023-03-31T21:14:33.226Z,8.10
2023-03-31T21:17:01.414Z,8.20
2023-03-31T21:22:00.110Z,8.10
2023-03-31T21:26:58.555Z,8.00
2023-03-31T21:31:55.199Z,7.80
2023-03-31T21:34:23.379Z,7.70
2023-03-31T21:36:51.443Z,7.70
2023-03-31T21:44:21.763Z,7.50
2023-03-31T21:49:18.670Z,7.40
2023-03-31T21:51:47.476Z,7.40
2023-03-31T21:54:15.752Z,7.30
2023-03-31T21:59:13.193Z,7.30
2023-03-31T22:01:45.315Z,7.30
2023-03-31T22:04:13.624Z,7.30
2023-03-31T22:06:41.834Z,7.30
2023-03-31T22:09:09.915Z,7.40
2023-03-31T22:11:44.764Z,7.40
2023-03-31T22:14:12.930Z,7.50
2023-03-31T22:16:47.090Z,7.70
2023-03-31T22:21:45.096Z,7.50
2023-03-31T22:24:14.045Z,7.60
2023-03-31T22:29:15.068Z,7.70
2023-03-31T22:34:15.491Z,7.90
2023-03-31T22:36:44.031Z,7.90
2023-03-31T22:39:12.133Z,7.90
2023-03-31T22:41:41.478Z,7.90
2023-03-31T22:44:09.923Z,7.90
2023-03-31T22:46:39.832Z,7.90
2023-03-31T22:49:08.094Z,8.00
2023-03-31T22:51:42.957Z,8.10
2023-03-31T22:54:14.461Z,8.20
2023-03-31T22:56:42.997Z,8.30
2023-03-31T22:59:11.244Z,8.40
2023-03-31T23:01:41.410Z,8.30
2023-03-31T23:04:09.703Z,8.40
2023-03-31T23:09:08.113Z,8.50
2023-03-31T23:11:36.371Z,8.50
2023-03-31T23:14:04.713Z,8.50
2023-03-31T23:19:01.750Z,8.40
2023-03-31T23:21:30.750Z,8.30
2023-03-31T23:24:01.588Z,8.30
2023-03-31T23:26:33.589Z,8.30
2023-03-31T23:29:02.402Z,8.30
2023-03-31T23:31:33.924Z,8.20
2023-03-31T23:34:02.353Z,8.30
2023-03-31T23:36:31.121Z,8.20
2023-03-31T23:38:59.515Z,8.20
2023-03-31T23:41:27.822Z,8.20
2023-03-31T23:43:57.871Z,8.20
2023-03-31T23:46:26.599Z,8.20
2023-03-31T23:48:55.140Z,8.60
2023-03-31T23:51:23.200Z,8.20
2023-03-31T23:53:52.740Z,8.20
2023-03-31T23:58:50.004Z,8.20
